sensor_id;sensor_type;location;lat;lon;timestamp;temperature;humidity
11922;DHT22;6021;51.182;3.160;2023-04-16T00:01:03;7.60;99.90
11922;DHT22;6021;51.182;3.160;2023-04-16T00:03:32;7.60;99.90
11922;DHT22;6021;51.182;3.160;2023-04-16T00:06:00;7.50;99.90
11922;DHT22;6021;51.182;3.160;2023-04-16T00:08:29;7.80;99.90
11922;DHT22;6021;51.182;3.160;2023-04-16T00:10:57;7.70;99.90
11922;DHT22;6021;51.182;3.160;2023-04-16T00:13:25;7.50;99.90
11922;DHT22;6021;51.182;3.160;2023-04-16T00:15:54;7.50;99.90
11922;DHT22;6021;51.182;3.160;2023-04-16T00:18:26;7.80;99.90
11922;DHT22;6021;51.182;3.160;2023-04-16T00:20:54;7.40;99.90
11922;DHT22;6021;51.182;3.160;2023-04-16T00:23:27;7.40;99.90
11922;DHT22;6021;51.182;3.160;2023-04-16T00:26:01;7.60;99.90
11922;DHT22;6021;51.182;3.160;2023-04-16T00:28:30;7.60;99.90
11922;DHT22;6021;51.182;3.160;2023-04-16T00:31:00;7.50;99.90
11922;DHT22;6021;51.182;3.160;2023-04-16T00:33:28;7.70;99.90
11922;DHT22;6021;51.182;3.160;2023-04-16T00:36:05;7.80;99.90
11922;DHT22;6021;51.182;3.160;2023-04-16T00:38:36;7.80;99.90
11922;DHT22;6021;51.182;3.160;2023-04-16T00:41:04;7.60;99.90
11922;DHT22;6021;51.182;3.160;2023-04-16T00:43:33;7.40;99.90
11922;DHT22;6021;51.182;3.160;2023-04-16T00:46:06;7.50;99.90
11922;DHT22;6021;51.182;3.160;2023-04-16T00:48:36;7.80;99.90
11922;DHT22;6021;51.182;3.160;2023-04-16T00:51:06;7.60;99.90
11922;DHT22;6021;51.182;3.160;2023-04-16T00:53:35;7.70;99.90
11922;DHT22;6021;51.182;3.160;2023-04-16T00:56:05;7.50;99.90
11922;DHT22;6021;51.182;3.160;2023-04-16T00:58:34;7.20;99.90
11922;DHT22;6021;51.182;3.160;2023-04-16T01:01:03;7.20;99.90
11922;DHT22;6021;51.182;3.160;2023-04-16T01:03:36;7.40;99.90
11922;DHT22;6021;51.182;3.160;2023-04-16T01:06:09;7.50;99.90
11922;DHT22;6021;51.182;3.160;2023-04-16T01:08:41;7.50;99.90
11922;DHT22;6021;51.182;3.160;2023-04-16T01:11:10;7.70;99.90
11922;DHT22;6021;51.182;3.160;2023-04-16T01:13:38;7.60;99.90
11922;DHT22;6021;51.182;3.160;2023-04-16T01:16:08;7.60;99.90
11922;DHT22;6021;51.182;3.160;2023-04-16T01:18:37;7.50;99.90
11922;DHT22;6021;51.182;3.160;2023-04-16T01:21:06;7.60;99.90
11922;DHT22;6021;51.182;3.160;2023-04-16T01:23:37;7.40;99.90
11922;DHT22;6021;51.182;3.160;2023-04-16T01:26:08;7.40;99.90
11922;DHT22;6021;51.182;3.160;2023-04-16T01:28:44;7.40;99.90
11922;DHT22;6021;51.182;3.160;2023-04-16T01:31:10;7.50;99.90
11922;DHT22;6021;51.182;3.160;2023-04-16T01:33:44;7.20;99.90
11922;DHT22;6021;51.182;3.160;2023-04-16T01:36:14;7.30;99.90
11922;DHT22;6021;51.182;3.160;2023-04-16T01:38:50;7.30;99.90
11922;DHT22;6021;51.182;3.160;2023-04-16T01:41:18;7.60;99.90
11922;DHT22;6021;51.182;3.160;2023-04-16T01:43:47;7.40;99.90
11922;DHT22;6021;51.182;3.160;2023-04-16T01:46:17;7.50;99.90
11922;DHT22;6021;51.182;3.160;2023-04-16T01:48:49;7.40;99.90
11922;DHT22;6021;51.182;3.160;2023-04-16T01:51:20;7.70;99.90
11922;DHT22;6021;51.182;3.160;2023-04-16T01:53:52;7.70;99.90
11922;DHT22;6021;51.182;3.160;2023-04-16T01:56:20;7.70;99.90
11922;DHT22;6021;51.182;3.160;2023-04-16T01:58:49;7.50;99.90
11922;DHT22;6021;51.182;3.160;2023-04-16T02:01:20;7.50;99.90
11922;DHT22;6021;51.182;3.160;2023-04-16T02:03:49;7.50;99.90
11922;DHT22;6021;51.182;3.160;2023-04-16T02:06:19;7.70;99.90
11922;DHT22;6021;51.182;3.160;2023-04-16T02:08:47;7.50;99.90
11922;DHT22;6021;51.182;3.160;2023-04-16T02:11:15;7.70;99.90
11922;DHT22;6021;51.182;3.160;2023-04-16T02:13:45;7.70;99.90
11922;DHT22;6021;51.182;3.160;2023-04-16T02:16:14;7.50;99.90
11922;DHT22;6021;51.182;3.160;2023-04-16T02:18:47;7.80;99.90
11922;DHT22;6021;51.182;3.160;2023-04-16T02:21:20;7.60;99.90
11922;DHT22;6021;51.182;3.160;2023-04-16T02:23:48;7.60;99.90
11922;DHT22;6021;51.182;3.160;2023-04-16T02:26:18;7.50;99.90
11922;DHT22;6021;51.182;3.160;2023-04-16T02:28:46;7.50;99.90
11922;DHT22;6021;51.182;3.160;2023-04-16T02:31:14;7.20;99.90
11922;DHT22;6021;51.182;3.160;2023-04-16T02:33:47;7.60;99.90
11922;DHT22;6021;51.182;3.160;2023-04-16T02:36:22;7.30;99.90
11922;DHT22;6021;51.182;3.160;2023-04-16T02:38:53;7.30;99.90
11922;DHT22;6021;51.182;3.160;2023-04-16T02:41:23;7.30;99.90
11922;DHT22;6021;51.182;3.160;2023-04-16T02:43:53;7.30;99.90
11922;DHT22;6021;51.182;3.160;2023-04-16T02:46:22;7.60;99.90
11922;DHT22;6021;51.182;3.160;2023-04-16T02:48:58;7.40;99.90
11922;DHT22;6021;51.182;3.160;2023-04-16T02:51:25;7.40;99.90
11922;DHT22;6021;51.182;3.160;2023-04-16T02:53:56;7.40;99.90
11922;DHT22;6021;51.182;3.160;2023-04-16T02:56:29;7.60;99.90
11922;DHT22;6021;51.182;3.160;2023-04-16T02:58:57;7.50;99.90
11922;DHT22;6021;51.182;3.160;2023-04-16T03:01:26;7.50;99.90
11922;DHT22;6021;51.182;3.160;2023-04-16T03:03:56;7.80;99.90
11922;DHT22;6021;51.182;3.160;2023-04-16T03:06:26;7.60;99.90
11922;DHT22;6021;51.182;3.160;2023-04-16T03:08:55;7.90;99.90
11922;DHT22;6021;51.182;3.160;2023-04-16T03:11:31;7.90;99.90
11922;DHT22;6021;51.182;3.160;2023-04-16T03:13:59;7.90;99.90
11922;DHT22;6021;51.182;3.160;2023-04-16T03:16:30;7.70;99.90
11922;DHT22;6021;51.182;3.160;2023-04-16T03:18:58;7.90;99.90
11922;DHT22;6021;51.182;3.160;2023-04-16T03:21:28;8.10;99.90
11922;DHT22;6021;51.182;3.160;2023-04-16T03:24:00;7.70;99.90
11922;DHT22;6021;51.182;3.160;2023-04-16T03:26:33;7.70;99.90
11922;DHT22;6021;51.182;3.160;2023-04-16T03:29:02;8.00;99.90
11922;DHT22;6021;51.182;3.160;2023-04-16T03:31:30;7.80;99.90
11922;DHT22;6021;51.182;3.160;2023-04-16T03:34:09;7.50;99.90
11922;DHT22;6021;51.182;3.160;2023-04-16T03:36:38;7.70;99.90
11922;DHT22;6021;51.182;3.160;2023-04-16T03:39:07;7.80;99.90
11922;DHT22;6021;51.182;3.160;2023-04-16T03:41:35;7.60;99.90
11922;DHT22;6021;51.182;3.160;2023-04-16T03:44:04;7.70;99.90
11922;DHT22;6021;51.182;3.160;2023-04-16T03:46:32;7.40;99.90
11922;DHT22;6021;51.182;3.160;2023-04-16T03:49:00;7.60;99.90
11922;DHT22;6021;51.182;3.160;2023-04-16T03:51:29;7.60;99.90
11922;DHT22;6021;51.182;3.160;2023-04-16T03:53:57;7.60;99.90
11922;DHT22;6021;51.182;3.160;2023-04-16T03:56:27;7.50;99.90
11922;DHT22;6021;51.182;3.160;2023-04-16T03:58:58;7.80;99.90
11922;DHT22;6021;51.182;3.160;2023-04-16T04:01:26;7.60;99.90
11922;DHT22;6021;51.182;3.160;2023-04-16T04:03:58;7.60;99.90
11922;DHT22;6021;51.182;3.160;2023-04-16T04:06:27;7.30;99.90
11922;DHT22;6021;51.182;3.160;2023-04-16T04:08:58;7.30;99.90
11922;DHT22;6021;51.182;3.160;2023-04-16T04:11:31;7.30;99.90
11922;DHT22;6021;51.182;3.160;2023-04-16T04:13:57;7.30;99.90
11922;DHT22;6021;51.182;3.160;2023-04-16T04:16:32;7.40;99.90
11922;DHT22;6021;51.182;3.160;2023-04-16T04:19:00;7.20;99.90
11922;DHT22;6021;51.182;3.160;2023-04-16T04:21:29;7.50;99.90
11922;DHT22;6021;51.182;3.160;2023-04-16T04:24:02;7.30;99.90
11922;DHT22;6021;51.182;3.160;2023-04-16T04:26:32;7.10;99.90
11922;DHT22;6021;51.182;3.160;2023-04-16T04:29:02;7.00;99.90
11922;DHT22;6021;51.182;3.160;2023-04-16T04:31:31;7.20;99.90
11922;DHT22;6021;51.182;3.160;2023-04-16T04:34:02;7.20;99.90
11922;DHT22;6021;51.182;3.160;2023-04-16T04:36:36;7.00;99.90
11922;DHT22;6021;51.182;3.160;2023-04-16T04:39:06;7.00;99.90
11922;DHT22;6021;51.182;3.160;2023-04-16T04:41:37;6.70;99.90
11922;DHT22;6021;51.182;3.160;2023-04-16T04:44:06;6.90;99.90
11922;DHT22;6021;51.182;3.160;2023-04-16T04:46:36;6.90;99.90
11922;DHT22;6021;51.182;3.160;2023-04-16T04:49:22;6.90;99.90
11922;DHT22;6021;51.182;3.160;2023-04-16T04:51:38;6.90;99.90
11922;DHT22;6021;51.182;3.160;2023-04-16T04:54:11;6.80;99.90
11922;DHT22;6021;51.182;3.160;2023-04-16T04:56:41;6.70;99.90
11922;DHT22;6021;51.182;3.160;2023-04-16T04:59:11;6.80;99.90
11922;DHT22;6021;51.182;3.160;2023-04-16T05:01:42;6.90;99.90
11922;DHT22;6021;51.182;3.160;2023-04-16T05:04:24;6.80;99.90
11922;DHT22;6021;51.182;3.160;2023-04-16T05:07:02;6.90;99.90
11922;DHT22;6021;51.182;3.160;2023-04-16T05:09:35;6.80;99.90
11922;DHT22;6021;51.182;3.160;2023-04-16T05:12:04;6.90;99.90
11922;DHT22;6021;51.182;3.160;2023-04-16T05:14:33;6.70;99.90
11922;DHT22;6021;51.182;3.160;2023-04-16T05:17:02;6.90;99.90
11922;DHT22;6021;51.182;3.160;2023-04-16T05:19:37;6.80;99.90
11922;DHT22;6021;51.182;3.160;2023-04-16T05:22:02;6.70;99.90
11922;DHT22;6021;51.182;3.160;2023-04-16T05:24:31;6.60;99.90
11922;DHT22;6021;51.182;3.160;2023-04-16T05:27:02;6.60;99.90
11922;DHT22;6021;51.182;3.160;2023-04-16T05:29:35;6.60;99.90
11922;DHT22;6021;51.182;3.160;2023-04-16T05:32:07;6.90;99.90
11922;DHT22;6021;51.182;3.160;2023-04-16T05:34:36;6.80;99.90
11922;DHT22;6021;51.182;3.160;2023-04-16T05:37:04;6.90;99.90
11922;DHT22;6021;51.182;3.160;2023-04-16T05:39:33;6.80;99.90
11922;DHT22;6021;51.182;3.160;2023-04-16T05:42:01;6.90;99.90
11922;DHT22;6021;51.182;3.160;2023-04-16T05:44:30;6.80;99.90
11922;DHT22;6021;51.182;3.160;2023-04-16T05:46:58;7.10;99.90
11922;DHT22;6021;51.182;3.160;2023-04-16T05:49:27;7.00;99.90
11922;DHT22;6021;51.182;3.160;2023-04-16T05:52:00;7.00;99.90
11922;DHT22;6021;51.182;3.160;2023-04-16T05:54:31;7.00;99.90
11922;DHT22;6021;51.182;3.160;2023-04-16T05:57:02;7.20;99.90
11922;DHT22;6021;51.182;3.160;2023-04-16T05:59:30;7.00;99.90
11922;DHT22;6021;51.182;3.160;2023-04-16T06:01:59;7.10;99.90
11922;DHT22;6021;51.182;3.160;2023-04-16T06:04:29;7.40;99.90
11922;DHT22;6021;51.182;3.160;2023-04-16T06:06:58;7.20;99.90
11922;DHT22;6021;51.182;3.160;2023-04-16T06:09:31;7.20;99.90
11922;DHT22;6021;51.182;3.160;2023-04-16T06:12:00;7.50;99.90
11922;DHT22;6021;51.182;3.160;2023-04-16T06:14:37;7.60;99.90
11922;DHT22;6021;51.182;3.160;2023-04-16T06:17:04;7.60;99.90
11922;DHT22;6021;51.182;3.160;2023-04-16T06:19:37;7.70;99.90
11922;DHT22;6021;51.182;3.160;2023-04-16T06:22:12;7.60;99.90
11922;DHT22;6021;51.182;3.160;2023-04-16T06:24:45;7.60;99.90
11922;DHT22;6021;51.182;3.160;2023-04-16T06:27:15;7.60;99.90
11922;DHT22;6021;51.182;3.160;2023-04-16T06:29:45;7.80;99.90
11922;DHT22;6021;51.182;3.160;2023-04-16T06:32:14;7.90;99.90
11922;DHT22;6021;51.182;3.160;2023-04-16T06:34:43;8.20;99.90
11922;DHT22;6021;51.182;3.160;2023-04-16T06:37:11;8.30;99.90
11922;DHT22;6021;51.182;3.160;2023-04-16T06:39:40;8.50;99.90
11922;DHT22;6021;51.182;3.160;2023-04-16T06:42:08;8.50;99.90
11922;DHT22;6021;51.182;3.160;2023-04-16T06:44:37;8.60;99.90
11922;DHT22;6021;51.182;3.160;2023-04-16T06:47:12;8.80;99.90
11922;DHT22;6021;51.182;3.160;2023-04-16T06:49:40;9.30;99.90
11922;DHT22;6021;51.182;3.160;2023-04-16T06:52:09;9.10;99.90
11922;DHT22;6021;51.182;3.160;2023-04-16T06:54:38;9.50;99.90
11922;DHT22;6021;51.182;3.160;2023-04-16T06:57:06;9.60;94.00
11922;DHT22;6021;51.182;3.160;2023-04-16T06:59:34;9.70;55.20
11922;DHT22;6021;51.182;3.160;2023-04-16T07:02:07;9.70;41.90
11922;DHT22;6021;51.182;3.160;2023-04-16T07:04:36;9.50;48.50
11922;DHT22;6021;51.182;3.160;2023-04-16T07:07:05;9.60;42.40
11922;DHT22;6021;51.182;3.160;2023-04-16T07:09:36;9.70;30.00
11922;DHT22;6021;51.182;3.160;2023-04-16T07:12:06;9.70;25.40
11922;DHT22;6021;51.182;3.160;2023-04-16T07:14:34;9.80;25.30
11922;DHT22;6021;51.182;3.160;2023-04-16T07:17:03;10.10;30.30
11922;DHT22;6021;51.182;3.160;2023-04-16T07:19:31;11.00;18.30
11922;DHT22;6021;51.182;3.160;2023-04-16T07:22:00;11.30;1.00
11922;DHT22;6021;51.182;3.160;2023-04-16T07:24:29;11.20;1.00
11922;DHT22;6021;51.182;3.160;2023-04-16T07:26:57;11.00;1.00
11922;DHT22;6021;51.182;3.160;2023-04-16T07:29:29;11.00;1.00
11922;DHT22;6021;51.182;3.160;2023-04-16T07:31:58;10.90;1.00
11922;DHT22;6021;51.182;3.160;2023-04-16T07:34:26;11.10;1.00
11922;DHT22;6021;51.182;3.160;2023-04-16T07:37:01;11.00;1.00
11922;DHT22;6021;51.182;3.160;2023-04-16T07:39:32;11.60;1.00
11922;DHT22;6021;51.182;3.160;2023-04-16T07:42:00;11.60;1.00
11922;DHT22;6021;51.182;3.160;2023-04-16T07:44:31;12.00;1.00
11922;DHT22;6021;51.182;3.160;2023-04-16T07:47:05;12.40;1.00
11922;DHT22;6021;51.182;3.160;2023-04-16T07:49:35;12.40;1.00
11922;DHT22;6021;51.182;3.160;2023-04-16T07:52:10;12.40;1.00
11922;DHT22;6021;51.182;3.160;2023-04-16T07:54:40;12.60;1.00
11922;DHT22;6021;51.182;3.160;2023-04-16T07:57:11;12.30;1.00
11922;DHT22;6021;51.182;3.160;2023-04-16T07:59:52;12.00;1.00
11922;DHT22;6021;51.182;3.160;2023-04-16T08:02:23;11.90;1.00
11922;DHT22;6021;51.182;3.160;2023-04-16T08:04:52;11.80;1.00
11922;DHT22;6021;51.182;3.160;2023-04-16T08:07:20;11.70;1.00
11922;DHT22;6021;51.182;3.160;2023-04-16T08:09:50;11.60;1.00
11922;DHT22;6021;51.182;3.160;2023-04-16T08:12:23;12.00;1.00
11922;DHT22;6021;51.182;3.160;2023-04-16T08:14:52;12.20;1.00
11922;DHT22;6021;51.182;3.160;2023-04-16T08:17:20;12.10;1.00
11922;DHT22;6021;51.182;3.160;2023-04-16T08:19:50;12.00;1.00
11922;DHT22;6021;51.182;3.160;2023-04-16T08:22:19;12.30;1.00
11922;DHT22;6021;51.182;3.160;2023-04-16T08:24:48;12.20;1.00
11922;DHT22;6021;51.182;3.160;2023-04-16T08:27:22;12.00;1.00
11922;DHT22;6021;51.182;3.160;2023-04-16T08:29:47;12.40;1.00
11922;DHT22;6021;51.182;3.160;2023-04-16T08:32:21;12.80;1.00
11922;DHT22;6021;51.182;3.160;2023-04-16T08:34:50;13.00;1.00
11922;DHT22;6021;51.182;3.160;2023-04-16T08:37:18;13.40;1.00
11922;DHT22;6021;51.182;3.160;2023-04-16T08:39:47;13.80;1.00
11922;DHT22;6021;51.182;3.160;2023-04-16T08:42:28;14.00;1.00
11922;DHT22;6021;51.182;3.160;2023-04-16T08:44:58;14.10;1.00
11922;DHT22;6021;51.182;3.160;2023-04-16T08:47:25;13.80;1.00
11922;DHT22;6021;51.182;3.160;2023-04-16T08:49:58;13.40;1.00
11922;DHT22;6021;51.182;3.160;2023-04-16T08:52:28;13.00;1.00
11922;DHT22;6021;51.182;3.160;2023-04-16T08:55:14;12.80;1.00
11922;DHT22;6021;51.182;3.160;2023-04-16T08:57:56;12.80;1.00
11922;DHT22;6021;51.182;3.160;2023-04-16T09:00:23;12.50;1.00
11922;DHT22;6021;51.182;3.160;2023-04-16T09:02:55;12.30;1.00
11922;DHT22;6021;51.182;3.160;2023-04-16T09:05:28;12.30;1.00
11922;DHT22;6021;51.182;3.160;2023-04-16T09:08:03;12.60;1.00
11922;DHT22;6021;51.182;3.160;2023-04-16T09:10:37;12.60;1.00
11922;DHT22;6021;51.182;3.160;2023-04-16T09:12:57;12.60;1.00
11922;DHT22;6021;51.182;3.160;2023-04-16T09:15:26;12.50;1.00
11922;DHT22;6021;51.182;3.160;2023-04-16T09:17:55;12.70;1.00
11922;DHT22;6021;51.182;3.160;2023-04-16T09:20:48;12.40;1.00
11922;DHT22;6021;51.182;3.160;2023-04-16T09:23:29;12.50;1.00
11922;DHT22;6021;51.182;3.160;2023-04-16T09:26:08;12.80;1.00
11922;DHT22;6021;51.182;3.160;2023-04-16T09:28:55;12.80;1.00
11922;DHT22;6021;51.182;3.160;2023-04-16T09:31:30;12.80;1.00
11922;DHT22;6021;51.182;3.160;2023-04-16T09:48:12;12.50;1.00
11922;DHT22;6021;51.182;3.160;2023-04-16T09:50:50;12.80;1.00
11922;DHT22;6021;51.182;3.160;2023-04-16T09:53:30;13.00;1.00
11922;DHT22;6021;51.182;3.160;2023-04-16T09:56:02;13.10;1.00
11922;DHT22;6021;51.182;3.160;2023-04-16T09:58:35;13.00;1.00
11922;DHT22;6021;51.182;3.160;2023-04-16T10:03:34;13.30;1.00
11922;DHT22;6021;51.182;3.160;2023-04-16T10:06:19;13.40;1.00
11922;DHT22;6021;51.182;3.160;2023-04-16T10:08:50;13.40;1.00
11922;DHT22;6021;51.182;3.160;2023-04-16T10:11:21;14.00;1.00
11922;DHT22;6021;51.182;3.160;2023-04-16T10:13:49;14.20;1.00
11922;DHT22;6021;51.182;3.160;2023-04-16T10:16:18;14.30;1.00
11922;DHT22;6021;51.182;3.160;2023-04-16T10:18:50;14.00;1.00
11922;DHT22;6021;51.182;3.160;2023-04-16T10:21:23;14.10;1.00
11922;DHT22;6021;51.182;3.160;2023-04-16T10:23:54;14.00;1.00
11922;DHT22;6021;51.182;3.160;2023-04-16T10:26:28;13.70;1.00
11922;DHT22;6021;51.182;3.160;2023-04-16T10:29:08;13.70;1.00
11922;DHT22;6021;51.182;3.160;2023-04-16T10:31:41;13.80;1.00
11922;DHT22;6021;51.182;3.160;2023-04-16T10:34:09;13.80;1.00
11922;DHT22;6021;51.182;3.160;2023-04-16T10:36:39;13.90;1.00
11922;DHT22;6021;51.182;3.160;2023-04-16T10:39:11;13.80;1.00
11922;DHT22;6021;51.182;3.160;2023-04-16T10:41:47;13.90;1.00
11922;DHT22;6021;51.182;3.160;2023-04-16T10:44:12;13.70;1.00
11922;DHT22;6021;51.182;3.160;2023-04-16T10:46:44;13.50;1.00
11922;DHT22;6021;51.182;3.160;2023-04-16T10:51:54;13.40;1.00
11922;DHT22;6021;51.182;3.160;2023-04-16T10:54:31;13.30;1.00
11922;DHT22;6021;51.182;3.160;2023-04-16T10:57:03;13.50;1.00
11922;DHT22;6021;51.182;3.160;2023-04-16T10:59:33;13.80;1.00
11922;DHT22;6021;51.182;3.160;2023-04-16T11:02:14;14.20;1.00
11922;DHT22;6021;51.182;3.160;2023-04-16T11:11:06;15.00;1.00
11922;DHT22;6021;51.182;3.160;2023-04-16T11:13:44;15.40;1.00
11922;DHT22;6021;51.182;3.160;2023-04-16T11:16:17;15.20;1.00
11922;DHT22;6021;51.182;3.160;2023-04-16T11:18:47;15.00;1.00
11922;DHT22;6021;51.182;3.160;2023-04-16T11:24:11;14.70;1.00
11922;DHT22;6021;51.182;3.160;2023-04-16T11:29:38;14.40;1.00
11922;DHT22;6021;51.182;3.160;2023-04-16T11:32:22;14.10;1.00
11922;DHT22;6021;51.182;3.160;2023-04-16T11:38:18;13.90;1.00
11922;DHT22;6021;51.182;3.160;2023-04-16T11:43:15;14.00;1.00
11922;DHT22;6021;51.182;3.160;2023-04-16T11:46:02;13.90;1.00
11922;DHT22;6021;51.182;3.160;2023-04-16T11:48:47;14.00;1.00
11922;DHT22;6021;51.182;3.160;2023-04-16T11:52:34;14.10;1.00
11922;DHT22;6021;51.182;3.160;2023-04-16T11:55:07;14.20;1.00
11922;DHT22;6021;51.182;3.160;2023-04-16T11:57:37;14.10;1.00
11922;DHT22;6021;51.182;3.160;2023-04-16T12:00:09;14.10;1.00
11922;DHT22;6021;51.182;3.160;2023-04-16T12:02:49;14.30;1.00
11922;DHT22;6021;51.182;3.160;2023-04-16T12:05:35;14.00;1.00
11922;DHT22;6021;51.182;3.160;2023-04-16T12:08:09;13.90;1.00
11922;DHT22;6021;51.182;3.160;2023-04-16T12:10:56;13.60;1.00
11922;DHT22;6021;51.182;3.160;2023-04-16T12:13:22;14.20;1.00
11922;DHT22;6021;51.182;3.160;2023-04-16T12:15:52;14.60;1.00
11922;DHT22;6021;51.182;3.160;2023-04-16T12:18:23;14.70;1.00
11922;DHT22;6021;51.182;3.160;2023-04-16T12:20:53;14.80;1.00
11922;DHT22;6021;51.182;3.160;2023-04-16T12:23:29;14.70;1.00
11922;DHT22;6021;51.182;3.160;2023-04-16T12:26:08;14.70;1.00
11922;DHT22;6021;51.182;3.160;2023-04-16T12:28:36;14.70;1.00
11922;DHT22;6021;51.182;3.160;2023-04-16T12:31:06;14.70;1.00
11922;DHT22;6021;51.182;3.160;2023-04-16T12:33:36;14.70;1.00
11922;DHT22;6021;51.182;3.160;2023-04-16T12:36:18;14.80;1.00
11922;DHT22;6021;51.182;3.160;2023-04-16T12:38:47;14.50;1.00
11922;DHT22;6021;51.182;3.160;2023-04-16T12:41:15;14.50;1.00
11922;DHT22;6021;51.182;3.160;2023-04-16T12:43:43;14.50;1.00
11922;DHT22;6021;51.182;3.160;2023-04-16T12:46:12;14.60;1.00
11922;DHT22;6021;51.182;3.160;2023-04-16T12:48:40;14.50;1.00
11922;DHT22;6021;51.182;3.160;2023-04-16T12:51:09;14.70;1.00
11922;DHT22;6021;51.182;3.160;2023-04-16T12:53:38;14.80;1.00
11922;DHT22;6021;51.182;3.160;2023-04-16T12:56:15;14.80;1.00
11922;DHT22;6021;51.182;3.160;2023-04-16T12:58:44;14.80;1.00
11922;DHT22;6021;51.182;3.160;2023-04-16T13:01:23;14.70;1.00
11922;DHT22;6021;51.182;3.160;2023-04-16T13:04:08;14.70;1.00
11922;DHT22;6021;51.182;3.160;2023-04-16T13:06:42;14.70;1.00
11922;DHT22;6021;51.182;3.160;2023-04-16T13:09:22;14.60;1.00
11922;DHT22;6021;51.182;3.160;2023-04-16T13:11:57;14.40;1.00
11922;DHT22;6021;51.182;3.160;2023-04-16T13:28:49;14.20;1.00
11922;DHT22;6021;51.182;3.160;2023-04-16T13:31:26;14.20;1.00
11922;DHT22;6021;51.182;3.160;2023-04-16T13:39:38;14.50;1.00
11922;DHT22;6021;51.182;3.160;2023-04-16T13:43:56;14.50;1.00
11922;DHT22;6021;51.182;3.160;2023-04-16T13:46:25;14.40;1.00
11922;DHT22;6021;51.182;3.160;2023-04-16T13:49:01;14.20;1.00
11922;DHT22;6021;51.182;3.160;2023-04-16T13:51:29;14.20;1.00
11922;DHT22;6021;51.182;3.160;2023-04-16T13:54:06;14.00;1.00
11922;DHT22;6021;51.182;3.160;2023-04-16T13:56:31;13.90;1.00
11922;DHT22;6021;51.182;3.160;2023-04-16T13:59:00;13.70;1.00
11922;DHT22;6021;51.182;3.160;2023-04-16T14:01:28;13.50;1.00
11922;DHT22;6021;51.182;3.160;2023-04-16T14:03:56;13.50;1.00
11922;DHT22;6021;51.182;3.160;2023-04-16T14:06:26;13.60;1.00
11922;DHT22;6021;51.182;3.160;2023-04-16T14:08:55;13.60;1.00
11922;DHT22;6021;51.182;3.160;2023-04-16T14:11:23;13.60;1.00
11922;DHT22;6021;51.182;3.160;2023-04-16T14:13:52;13.50;1.00
11922;DHT22;6021;51.182;3.160;2023-04-16T14:16:21;13.40;1.00
11922;DHT22;6021;51.182;3.160;2023-04-16T14:18:49;13.50;1.00
11922;DHT22;6021;51.182;3.160;2023-04-16T14:21:18;13.20;1.00
11922;DHT22;6021;51.182;3.160;2023-04-16T14:23:46;13.20;1.00
11922;DHT22;6021;51.182;3.160;2023-04-16T14:26:14;13.20;1.00
11922;DHT22;6021;51.182;3.160;2023-04-16T14:28:43;13.10;1.00
11922;DHT22;6021;51.182;3.160;2023-04-16T14:31:12;13.00;1.00
11922;DHT22;6021;51.182;3.160;2023-04-16T14:33:40;12.90;1.00
11922;DHT22;6021;51.182;3.160;2023-04-16T14:36:09;13.00;1.00
11922;DHT22;6021;51.182;3.160;2023-04-16T14:38:37;12.90;1.00
11922;DHT22;6021;51.182;3.160;2023-04-16T14:41:07;12.90;1.00
11922;DHT22;6021;51.182;3.160;2023-04-16T14:43:35;12.90;1.00
11922;DHT22;6021;51.182;3.160;2023-04-16T14:46:03;12.90;1.00
11922;DHT22;6021;51.182;3.160;2023-04-16T14:48:34;12.80;1.00
11922;DHT22;6021;51.182;3.160;2023-04-16T14:51:02;13.00;1.00
11922;DHT22;6021;51.182;3.160;2023-04-16T14:53:33;13.20;1.00
11922;DHT22;6021;51.182;3.160;2023-04-16T14:56:04;13.20;1.00
11922;DHT22;6021;51.182;3.160;2023-04-16T14:58:35;13.20;1.00
11922;DHT22;6021;51.182;3.160;2023-04-16T15:01:22;13.20;1.00
11922;DHT22;6021;51.182;3.160;2023-04-16T15:03:36;13.10;1.00
11922;DHT22;6021;51.182;3.160;2023-04-16T15:06:04;13.10;1.00
11922;DHT22;6021;51.182;3.160;2023-04-16T15:08:35;13.20;1.00
11922;DHT22;6021;51.182;3.160;2023-04-16T15:11:04;13.30;1.00
11922;DHT22;6021;51.182;3.160;2023-04-16T15:13:33;13.40;1.00
11922;DHT22;6021;51.182;3.160;2023-04-16T15:16:02;13.20;1.00
11922;DHT22;6021;51.182;3.160;2023-04-16T15:18:33;13.10;1.00
11922;DHT22;6021;51.182;3.160;2023-04-16T15:21:03;13.10;1.00
11922;DHT22;6021;51.182;3.160;2023-04-16T15:23:31;12.90;1.00
11922;DHT22;6021;51.182;3.160;2023-04-16T15:26:01;12.70;1.00
11922;DHT22;6021;51.182;3.160;2023-04-16T15:28:34;12.50;1.00
11922;DHT22;6021;51.182;3.160;2023-04-16T15:31:04;12.60;1.00
11922;DHT22;6021;51.182;3.160;2023-04-16T15:33:32;12.50;1.00
11922;DHT22;6021;51.182;3.160;2023-04-16T15:36:01;12.40;1.00
11922;DHT22;6021;51.182;3.160;2023-04-16T15:38:30;12.30;1.00
11922;DHT22;6021;51.182;3.160;2023-04-16T15:40:58;12.10;1.00
11922;DHT22;6021;51.182;3.160;2023-04-16T15:43:27;12.10;1.00
11922;DHT22;6021;51.182;3.160;2023-04-16T15:45:56;12.30;1.00
11922;DHT22;6021;51.182;3.160;2023-04-16T15:48:24;12.00;1.00
11922;DHT22;6021;51.182;3.160;2023-04-16T15:50:55;12.00;1.00
11922;DHT22;6021;51.182;3.160;2023-04-16T15:53:23;12.10;1.00
11922;DHT22;6021;51.182;3.160;2023-04-16T15:55:52;12.00;1.00
11922;DHT22;6021;51.182;3.160;2023-04-16T15:58:20;11.90;1.00
11922;DHT22;6021;51.182;3.160;2023-04-16T16:00:49;11.80;1.00
11922;DHT22;6021;51.182;3.160;2023-04-16T16:03:18;12.00;1.00
11922;DHT22;6021;51.182;3.160;2023-04-16T16:05:47;11.90;1.00
11922;DHT22;6021;51.182;3.160;2023-04-16T16:08:15;11.80;1.00
11922;DHT22;6021;51.182;3.160;2023-04-16T16:10:43;11.90;1.00
11922;DHT22;6021;51.182;3.160;2023-04-16T16:13:13;11.90;1.00
11922;DHT22;6021;51.182;3.160;2023-04-16T16:15:42;11.90;1.00
11922;DHT22;6021;51.182;3.160;2023-04-16T16:18:11;11.90;1.00
11922;DHT22;6021;51.182;3.160;2023-04-16T16:20:40;12.00;1.00
11922;DHT22;6021;51.182;3.160;2023-04-16T16:23:08;11.90;1.00
11922;DHT22;6021;51.182;3.160;2023-04-16T16:25:36;11.90;1.00
11922;DHT22;6021;51.182;3.160;2023-04-16T16:28:05;11.90;1.00
11922;DHT22;6021;51.182;3.160;2023-04-16T16:30:34;11.90;1.00
11922;DHT22;6021;51.182;3.160;2023-04-16T16:33:02;11.80;1.00
11922;DHT22;6021;51.182;3.160;2023-04-16T16:35:30;11.70;1.00
11922;DHT22;6021;51.182;3.160;2023-04-16T16:37:59;11.70;1.00
11922;DHT22;6021;51.182;3.160;2023-04-16T16:40:28;11.70;1.00
11922;DHT22;6021;51.182;3.160;2023-04-16T16:42:57;11.80;1.00
11922;DHT22;6021;51.182;3.160;2023-04-16T16:45:26;11.90;1.00
11922;DHT22;6021;51.182;3.160;2023-04-16T16:47:55;12.00;1.00
11922;DHT22;6021;51.182;3.160;2023-04-16T16:50:25;11.90;1.00
11922;DHT22;6021;51.182;3.160;2023-04-16T16:52:54;11.90;1.00
11922;DHT22;6021;51.182;3.160;2023-04-16T16:55:27;12.00;1.00
11922;DHT22;6021;51.182;3.160;2023-04-16T16:57:53;11.90;1.00
11922;DHT22;6021;51.182;3.160;2023-04-16T17:00:21;12.00;1.00
11922;DHT22;6021;51.182;3.160;2023-04-16T17:02:50;11.80;1.00
11922;DHT22;6021;51.182;3.160;2023-04-16T17:05:19;11.80;1.00
11922;DHT22;6021;51.182;3.160;2023-04-16T17:07:47;11.90;1.00
11922;DHT22;6021;51.182;3.160;2023-04-16T17:10:16;12.00;1.00
11922;DHT22;6021;51.182;3.160;2023-04-16T17:12:48;11.90;1.00
11922;DHT22;6021;51.182;3.160;2023-04-16T17:15:17;11.80;1.00
11922;DHT22;6021;51.182;3.160;2023-04-16T17:17:45;11.80;1.00
11922;DHT22;6021;51.182;3.160;2023-04-16T17:20:14;11.70;1.00
11922;DHT22;6021;51.182;3.160;2023-04-16T17:22:46;11.50;1.00
11922;DHT22;6021;51.182;3.160;2023-04-16T17:25:14;11.30;1.00